createdAt,value
2019-01-20T00:02:17.331Z,101045.03
2019-01-20T00:04:48.153Z,101050.89
2019-01-20T00:07:18.945Z,101043.33
2019-01-20T00:09:49.712Z,101048.28
2019-01-20T00:12:20.536Z,101046.73
2019-01-20T00:14:51.287Z,101035.09
2019-01-20T00:17:22.121Z,101035.38
2019-01-20T00:19:52.901Z,101038.44
2019-01-20T00:22:23.781Z,101033.53
2019-01-20T00:24:54.662Z,101035.38
2019-01-20T00:27:25.449Z,101028.51
2019-01-20T00:29:56.261Z,101031.64
2019-01-20T00:32:27.547Z,101027.05
2019-01-20T00:34:58.359Z,101035.83
2019-01-20T00:37:29.168Z,101029.70
2019-01-20T00:39:59.965Z,101034.66
2019-01-20T00:42:30.770Z,101028.83
2019-01-20T00:45:02.972Z,101029.31
2019-01-20T00:47:34.080Z,101032.22
2019-01-20T00:50:06.155Z,101028.21
2019-01-20T00:52:36.920Z,101028.38
2019-01-20T00:55:10.382Z,101028.95
2019-01-20T00:57:41.793Z,101026.09
2019-01-20T01:00:26.800Z,101033.13
2019-01-20T01:02:57.809Z,101035.02
2019-01-20T01:05:29.061Z,101037.53
2019-01-20T01:08:00.051Z,101037.85
2019-01-20T01:10:30.868Z,101030.47
2019-01-20T01:13:04.772Z,101030.97
2019-01-20T01:15:35.669Z,101026.31
2019-01-20T01:18:06.640Z,101022.52
2019-01-20T01:20:37.428Z,101023.96
2019-01-20T01:23:08.215Z,101025.58
2019-01-20T01:25:39.048Z,101025.78
2019-01-20T01:28:09.800Z,101025.38
2019-01-20T01:30:40.599Z,101033.58
2019-01-20T01:33:11.414Z,101027.65
2019-01-20T01:35:42.193Z,101023.83
2019-01-20T01:38:12.997Z,101022.53
2019-01-20T01:40:43.802Z,101024.03
2019-01-20T01:43:14.590Z,101026.53
2019-01-20T01:45:45.500Z,101025.41
2019-01-20T01:48:16.307Z,101025.20
2019-01-20T01:50:47.116Z,101022.86
2019-01-20T01:53:17.887Z,101024.52
2019-01-20T01:55:48.680Z,101020.77
2019-01-20T01:58:19.459Z,101020.16
2019-01-20T02:00:50.312Z,101019.52
2019-01-20T02:03:21.132Z,101014.23
2019-01-20T02:05:51.940Z,101010.60
2019-01-20T02:08:22.797Z,101016.16
2019-01-20T02:10:53.586Z,101017.05
2019-01-20T02:13:24.316Z,101013.02
2019-01-20T02:15:55.106Z,101010.31
2019-01-20T02:18:25.889Z,101010.80
2019-01-20T02:20:56.724Z,101011.13
2019-01-20T02:23:27.517Z,101004.11
2019-01-20T02:25:58.276Z,101011.04
2019-01-20T02:28:29.072Z,101008.22
2019-01-20T02:30:59.828Z,101014.27
2019-01-20T02:33:30.642Z,101010.67
2019-01-20T02:36:02.106Z,101014.30
2019-01-20T02:38:32.910Z,101012.84
2019-01-20T02:41:03.692Z,101009.13
2019-01-20T02:43:34.524Z,101011.31
2019-01-20T02:46:05.300Z,101006.52
2019-01-20T02:48:37.279Z,101008.89
2019-01-20T02:51:08.042Z,101004.70
2019-01-20T02:53:38.846Z,101007.20
2019-01-20T02:56:09.626Z,101008.17
2019-01-20T02:58:40.428Z,101011.16
2019-01-20T03:01:11.196Z,101010.91
2019-01-20T03:03:42.273Z,101008.60
2019-01-20T03:06:13.084Z,101009.13
2019-01-20T03:08:43.884Z,101007.61
2019-01-20T03:11:14.732Z,101004.34
2019-01-20T03:13:45.552Z,100996.61
2019-01-20T03:16:16.314Z,100999.40
2019-01-20T03:18:47.512Z,100995.61
2019-01-20T03:21:18.294Z,100993.03
2019-01-20T03:23:49.119Z,100992.98
2019-01-20T03:26:19.890Z,100990.36
2019-01-20T03:28:50.683Z,100989.91
2019-01-20T03:31:21.453Z,100985.83
2019-01-20T03:33:52.246Z,100988.41
2019-01-20T03:36:23.032Z,100990.47
2019-01-20T03:38:53.820Z,100992.27
2019-01-20T03:41:24.592Z,100994.55
2019-01-20T03:43:55.339Z,100995.36
2019-01-20T03:46:26.170Z,100993.26
2019-01-20T03:48:56.946Z,100998.84
2019-01-20T03:51:27.797Z,100997.50
2019-01-20T03:53:58.611Z,100996.48
2019-01-20T03:56:29.421Z,100993.26
2019-01-20T03:59:00.337Z,100993.51
2019-01-20T04:01:31.259Z,100999.92
2019-01-20T04:04:02.085Z,100999.17
2019-01-20T04:06:32.883Z,100995.33
2019-01-20T04:09:08.939Z,100994.20
2019-01-20T04:11:39.703Z,100993.72
2019-01-20T04:14:10.530Z,100991.81
2019-01-20T04:16:41.352Z,100992.84
2019-01-20T04:19:14.046Z,100997.78
2019-01-20T04:21:44.911Z,100994.44
2019-01-20T04:24:16.208Z,100989.08
2019-01-20T04:26:50.051Z,100987.70
2019-01-20T04:29:27.997Z,100989.31
2019-01-20T04:32:05.249Z,100991.99
2019-01-20T04:34:37.687Z,100992.39
2019-01-20T04:37:19.147Z,100990.30
2019-01-20T04:39:55.267Z,100985.73
2019-01-20T04:42:29.136Z,100987.02
2019-01-20T04:45:13.943Z,100988.88
2019-01-20T04:47:50.035Z,100988.99
2019-01-20T04:50:32.234Z,100984.11
2019-01-20T04:53:08.667Z,100990.63
2019-01-20T04:55:45.161Z,100989.18
2019-01-20T04:58:24.508Z,100987.95
2019-01-20T05:01:02.395Z,100986.17
2019-01-20T05:03:36.184Z,100991.97
2019-01-20T05:06:09.607Z,100987.18
2019-01-20T05:08:42.721Z,100984.11
2019-01-20T05:11:17.613Z,100983.27
2019-01-20T05:13:48.608Z,100982.37
2019-01-20T05:16:23.847Z,100988.23
2019-01-20T05:19:05.667Z,100989.61
2019-01-20T05:21:39.943Z,100987.38
2019-01-20T05:24:13.950Z,100987.05
2019-01-20T05:26:44.722Z,100991.86
2019-01-20T05:29:21.354Z,100996.91
2019-01-20T05:31:57.220Z,100992.09
2019-01-20T05:34:30.278Z,101000.06
2019-01-20T05:37:03.030Z,100995.38
2019-01-20T05:39:44.070Z,100993.93
2019-01-20T05:42:11.255Z,100993.77
2019-01-20T05:44:44.936Z,100995.08
2019-01-20T05:47:16.041Z,100994.67
2019-01-20T05:49:49.196Z,100995.56
2019-01-20T05:52:23.230Z,101002.57
2019-01-20T05:55:02.663Z,101001.86
2019-01-20T05:57:39.329Z,101002.67
2019-01-20T06:00:24.111Z,101005.73
2019-01-20T06:02:58.226Z,101008.16
2019-01-20T06:05:32.102Z,101007.67
2019-01-20T06:08:09.937Z,101008.70
2019-01-20T06:10:40.833Z,101009.69
2019-01-20T06:13:22.241Z,101012.57
2019-01-20T06:15:54.123Z,101014.92
2019-01-20T06:18:27.122Z,101010.30
2019-01-20T06:21:00.090Z,101009.84
2019-01-20T06:23:35.686Z,101009.11
2019-01-20T06:26:11.034Z,101011.56
2019-01-20T06:28:42.503Z,101008.76
2019-01-20T06:31:13.926Z,101012.13
2019-01-20T06:33:44.956Z,101016.30
2019-01-20T06:36:19.081Z,101013.25
2019-01-20T06:39:00.945Z,101012.30
2019-01-20T06:41:32.356Z,101020.08
2019-01-20T06:44:06.404Z,101022.20
2019-01-20T06:46:43.426Z,101016.16
2019-01-20T06:49:15.945Z,101018.80
2019-01-20T06:51:48.749Z,101028.29
2019-01-20T06:54:19.523Z,101027.00
2019-01-20T06:56:51.498Z,101033.78
2019-01-20T06:59:22.863Z,101032.41
2019-01-20T07:01:54.102Z,101033.70
2019-01-20T07:04:25.571Z,101036.11
2019-01-20T07:06:57.923Z,101032.50
2019-01-20T07:09:29.198Z,101039.25
2019-01-20T07:12:05.734Z,101042.86
2019-01-20T07:14:40.216Z,101044.41
2019-01-20T07:17:11.968Z,101038.59
2019-01-20T07:19:43.337Z,101040.55
2019-01-20T07:22:14.652Z,101042.81
2019-01-20T07:24:47.915Z,101046.42
2019-01-20T07:27:20.501Z,101051.34
2019-01-20T07:29:56.183Z,101047.65
2019-01-20T07:32:27.521Z,101054.37
2019-01-20T07:34:58.695Z,101056.14
2019-01-20T07:37:29.541Z,101060.15
2019-01-20T07:40:00.434Z,101061.20
2019-01-20T07:42:31.153Z,101064.49
2019-01-20T07:45:01.929Z,101069.59
2019-01-20T07:47:32.896Z,101066.52
2019-01-20T07:50:04.259Z,101061.50
2019-01-20T07:52:36.551Z,101067.39
2019-01-20T07:55:08.769Z,101073.98
2019-01-20T07:57:47.321Z,101072.53
2019-01-20T08:00:21.350Z,101076.52
2019-01-20T08:02:52.149Z,101086.34
2019-01-20T08:05:23.210Z,101080.17
2019-01-20T08:07:54.101Z,101077.05
2019-01-20T08:10:34.105Z,101078.27
2019-01-20T08:13:06.294Z,101078.06
2019-01-20T08:15:37.081Z,101087.79
2019-01-20T08:18:07.917Z,101087.47
2019-01-20T08:20:40.578Z,101088.52
2019-01-20T08:23:11.449Z,101087.30
2019-01-20T08:25:42.296Z,101091.78
2019-01-20T08:28:13.160Z,101093.03
2019-01-20T08:30:44.017Z,101097.19
2019-01-20T08:33:14.939Z,101100.02
2019-01-20T08:35:45.749Z,101094.16
2019-01-20T08:38:16.604Z,101095.28
2019-01-20T08:40:47.476Z,101102.34
2019-01-20T08:43:18.267Z,101106.42
2019-01-20T08:46:59.256Z,101097.06
2019-01-20T08:49:30.065Z,101111.91
2019-01-20T08:52:00.885Z,101109.36
2019-01-20T08:54:31.714Z,101111.63
2019-01-20T08:57:02.493Z,101121.63
2019-01-20T08:59:33.340Z,101117.58
2019-01-20T09:02:04.367Z,101125.83
2019-01-20T09:04:35.267Z,101118.34
2019-01-20T09:07:06.476Z,101121.89
2019-01-20T09:09:37.476Z,101126.20
2019-01-20T09:12:08.359Z,101132.52
2019-01-20T09:14:47.832Z,101122.86
2019-01-20T09:17:26.974Z,101125.78
2019-01-20T09:20:04.121Z,101123.56
2019-01-20T09:22:31.085Z,101121.38
2019-01-20T09:25:03.748Z,101131.25
2019-01-20T09:28:08.082Z,101130.89
2019-01-20T09:30:27.503Z,101126.83
2019-01-20T09:32:58.430Z,101130.73
2019-01-20T09:35:31.772Z,101133.95
2019-01-20T09:38:03.184Z,101132.98
2019-01-20T09:40:36.514Z,101128.95
2019-01-20T09:43:07.535Z,101134.81
2019-01-20T09:45:38.448Z,101137.99
2019-01-20T09:48:09.235Z,101132.14
2019-01-20T09:50:40.089Z,101130.28
2019-01-20T09:53:11.001Z,101136.59
2019-01-20T09:55:42.952Z,101131.22
2019-01-20T09:58:13.840Z,101135.82
2019-01-20T10:00:44.728Z,101127.75
2019-01-20T10:03:16.313Z,101133.78
2019-01-20T10:05:47.298Z,101133.58
2019-01-20T10:08:18.251Z,101130.34
2019-01-20T10:10:49.119Z,101129.42
2019-01-20T10:13:20.042Z,101132.31
2019-01-20T10:15:52.381Z,101132.86
2019-01-20T11:56:12.980Z,101132.23
2019-01-20T11:58:52.539Z,101130.81
2019-01-20T12:01:23.415Z,101128.69
2019-01-20T12:03:54.295Z,101132.28
2019-01-20T12:06:30.707Z,101128.86
2019-01-20T12:09:06.811Z,101126.50
2019-01-20T12:11:39.385Z,101131.06
2019-01-20T12:14:13.909Z,101132.00
2019-01-20T12:16:44.963Z,101129.05
2019-01-20T12:19:20.143Z,101121.59
2019-01-20T12:21:55.227Z,101122.09
2019-01-20T12:24:28.836Z,101119.19
2019-01-20T12:27:02.449Z,101124.49
2019-01-20T12:29:40.745Z,101122.08
2019-01-20T12:32:13.366Z,101112.02
2019-01-20T12:34:46.474Z,101116.51
2019-01-20T12:37:22.439Z,101116.51
2019-01-20T12:39:55.907Z,101113.55
2019-01-20T12:42:26.942Z,101106.83
2019-01-20T12:45:00.251Z,101114.79
2019-01-20T12:47:47.105Z,101110.89
2019-01-20T12:50:18.711Z,101105.27
2019-01-20T12:52:52.968Z,101101.00
2019-01-20T12:55:26.958Z,101108.16
2019-01-20T12:57:58.546Z,101105.55
2019-01-20T13:00:29.794Z,101102.84
2019-01-20T13:03:02.771Z,101101.55
2019-01-20T13:05:33.661Z,101100.61
2019-01-20T13:08:06.587Z,101104.95
2019-01-20T13:10:55.136Z,101099.11
2019-01-20T13:13:26.207Z,101107.27
2019-01-20T13:16:00.618Z,101107.45
2019-01-20T13:18:31.896Z,101111.41
2019-01-20T13:21:05.119Z,101108.76
2019-01-20T13:23:36.223Z,101103.83
2019-01-20T13:26:07.122Z,101112.47
2019-01-20T13:28:39.850Z,101114.30
2019-01-20T13:31:13.233Z,101110.41
2019-01-20T13:33:44.470Z,101112.05
2019-01-20T13:36:15.447Z,101110.78
2019-01-20T13:38:46.619Z,101117.60
2019-01-20T13:41:30.924Z,101115.47
2019-01-20T13:44:07.545Z,101115.26
2019-01-20T13:46:38.622Z,101115.57
2019-01-20T13:49:12.331Z,101115.10
2019-01-20T13:51:43.406Z,101118.71
2019-01-20T13:54:15.591Z,101119.06
2019-01-20T13:56:46.482Z,101118.89
2019-01-20T14:00:42.203Z,101120.63
2019-01-20T14:03:13.280Z,101120.26
2019-01-20T14:05:47.618Z,101121.02
2019-01-20T14:08:20.626Z,101119.30
2019-01-20T14:10:54.570Z,101119.09
2019-01-20T14:13:44.777Z,101126.02
2019-01-20T14:16:11.890Z,101126.60
2019-01-20T14:18:45.321Z,101126.19
2019-01-20T14:21:19.004Z,101127.03
2019-01-20T14:23:51.059Z,101129.09
2019-01-20T14:26:21.916Z,101129.41
2019-01-20T14:28:52.794Z,101136.58
2019-01-20T14:31:25.934Z,101127.38
2019-01-20T14:33:59.182Z,101138.51
2019-01-20T14:36:30.304Z,101138.80
2019-01-20T14:39:08.760Z,101137.80
2019-01-20T14:41:56.398Z,101149.43
2019-01-20T14:44:30.066Z,101155.83
2019-01-20T14:47:04.636Z,101149.84
2019-01-20T14:49:42.405Z,101152.03
2019-01-20T14:52:34.782Z,101151.15
2019-01-20T14:55:07.370Z,101147.95
2019-01-20T14:57:42.932Z,101156.34
2019-01-20T15:00:29.124Z,101159.06
2019-01-20T15:03:03.806Z,101156.05
2019-01-20T15:05:42.098Z,101158.77
2019-01-20T15:08:18.278Z,101158.94
2019-01-20T15:10:51.274Z,101163.71
2019-01-20T15:13:23.858Z,101157.30
2019-01-20T15:15:58.098Z,101166.90
2019-01-20T15:18:47.935Z,101166.37
2019-01-20T15:21:56.385Z,101172.39
2019-01-20T15:24:45.279Z,101165.43
2019-01-20T15:27:23.132Z,101165.72
2019-01-20T15:30:00.197Z,101170.36
2019-01-20T15:32:31.385Z,101169.29
2019-01-20T15:35:05.293Z,101175.31
2019-01-20T15:37:43.467Z,101173.59
2019-01-20T15:40:19.711Z,101175.31
2019-01-20T15:42:51.012Z,101173.80
2019-01-20T15:45:25.928Z,101178.45
2019-01-20T15:48:02.882Z,101177.84
2019-01-20T15:50:34.621Z,101178.50
2019-01-20T15:53:05.814Z,101173.25
2019-01-20T15:55:40.077Z,101184.95
2019-01-20T15:58:12.955Z,101187.47
2019-01-20T16:00:48.217Z,101187.26
2019-01-20T16:03:23.214Z,101195.66
2019-01-20T16:06:18.693Z,101190.41
2019-01-20T16:08:49.673Z,101191.17
2019-01-20T16:11:44.908Z,101204.05
2019-01-20T16:14:21.069Z,101205.64
2019-01-20T16:16:55.433Z,101212.19
2019-01-20T16:19:41.239Z,101205.95
2019-01-20T16:22:17.720Z,101213.27
2019-01-20T16:24:49.114Z,101213.11
2019-01-20T16:27:24.801Z,101206.93
2019-01-20T16:30:03.189Z,101208.88
2019-01-20T16:32:37.649Z,101215.02
2019-01-20T16:35:15.937Z,101219.02
2019-01-20T16:38:00.169Z,101220.42
2019-01-20T16:40:52.177Z,101223.42
2019-01-20T16:43:26.085Z,101223.05
2019-01-20T16:45:59.289Z,101229.36
2019-01-20T16:48:32.692Z,101230.25
2019-01-20T16:51:03.943Z,101233.04
2019-01-20T16:53:34.847Z,101234.81
2019-01-20T16:56:06.433Z,101241.13
2019-01-20T16:58:40.481Z,101241.59
2019-01-20T17:01:17.105Z,101240.16
2019-01-20T17:03:48.211Z,101242.32
2019-01-20T17:06:22.741Z,101243.82
2019-01-20T17:08:58.657Z,101251.43
2019-01-20T17:11:34.435Z,101258.25
2019-01-20T17:14:06.540Z,101257.13
2019-01-20T17:16:50.929Z,101260.61
2019-01-20T17:19:19.655Z,101264.02
2019-01-20T17:21:53.298Z,101264.28
2019-01-20T17:24:26.424Z,101262.50
2019-01-20T17:26:58.553Z,101266.11
2019-01-20T17:29:30.187Z,101271.51
2019-01-20T17:32:01.332Z,101275.88
2019-01-20T17:34:32.559Z,101277.00
2019-01-20T17:37:03.738Z,101282.69
2019-01-20T17:39:34.817Z,101280.91
2019-01-20T17:42:06.033Z,101286.26
2019-01-20T17:44:40.616Z,101287.14
2019-01-20T17:47:22.662Z,101292.45
2019-01-20T17:49:53.834Z,101294.31
2019-01-20T17:52:24.725Z,101296.57
2019-01-20T17:54:57.223Z,101300.27
2019-01-20T17:57:28.422Z,101298.23
2019-01-20T17:59:59.653Z,101306.94
2019-01-20T18:02:30.671Z,101310.78
2019-01-20T18:05:01.906Z,101311.99
2019-01-20T18:07:32.968Z,101306.95
2019-01-20T18:10:05.859Z,101311.17
2019-01-20T18:12:38.589Z,101309.72
2019-01-20T18:15:12.528Z,101316.94
2019-01-20T18:17:43.587Z,101320.22
2019-01-20T18:20:19.604Z,101321.36
2019-01-20T18:22:51.605Z,101325.80
2019-01-20T18:25:23.010Z,101323.20
2019-01-20T18:27:55.008Z,101324.66
2019-01-20T18:30:28.334Z,101326.84
2019-01-20T18:32:59.320Z,101332.02
2019-01-20T18:35:30.548Z,101331.05
2019-01-20T18:38:01.553Z,101342.23
2019-01-20T18:40:32.425Z,101341.50
2019-01-20T18:43:03.344Z,101354.78
2019-01-20T18:45:34.760Z,101353.53
2019-01-20T18:48:06.219Z,101363.84
2019-01-20T18:50:39.028Z,101365.19
2019-01-20T18:53:10.264Z,101365.13
2019-01-20T18:55:41.372Z,101375.34
2019-01-20T18:58:12.316Z,101378.44
2019-01-20T19:00:50.445Z,101381.77
2019-01-20T19:03:21.491Z,101383.75
2019-01-20T19:05:52.541Z,101377.34
2019-01-20T19:08:23.524Z,101387.34
2019-01-20T19:10:54.584Z,101392.47
2019-01-20T19:13:25.548Z,101395.45
2019-01-20T19:15:56.489Z,101390.23
2019-01-20T19:18:27.368Z,101397.30
2019-01-20T19:20:58.299Z,101391.37
2019-01-20T19:23:29.191Z,101394.84
2019-01-20T19:26:00.052Z,101400.02
2019-01-20T19:28:30.891Z,101399.67
2019-01-20T19:31:01.709Z,101405.47
2019-01-20T19:33:32.681Z,101402.78
2019-01-20T19:36:03.712Z,101412.59
2019-01-20T19:38:34.529Z,101409.22
2019-01-20T19:41:05.328Z,101416.29
2019-01-20T19:43:36.792Z,101425.03
2019-01-20T19:46:07.852Z,101426.62
2019-01-20T19:48:38.699Z,101425.00
2019-01-20T19:51:09.589Z,101429.36
2019-01-20T19:53:40.447Z,101426.49
2019-01-20T19:56:11.424Z,101428.75
2019-01-20T19:58:42.272Z,101426.37
2019-01-20T20:01:13.141Z,101420.28
2019-01-20T20:03:44.056Z,101424.64
2019-01-20T20:06:14.920Z,101429.13
2019-01-20T20:08:45.759Z,101433.78
2019-01-20T20:11:16.625Z,101438.96
2019-01-20T20:13:47.545Z,101438.45
2019-01-20T20:16:23.310Z,101442.27
2019-01-20T20:18:50.935Z,101440.30
2019-01-20T20:21:21.773Z,101446.97
2019-01-20T20:23:52.609Z,101446.05
2019-01-20T20:26:23.584Z,101448.08
2019-01-20T20:28:54.625Z,101454.22
2019-01-20T20:31:25.812Z,101461.86
2019-01-20T20:33:56.811Z,101468.29
2019-01-20T20:36:27.593Z,101459.09
2019-01-20T20:38:58.396Z,101464.91
2019-01-20T20:41:29.341Z,101461.22
2019-01-20T20:44:00.263Z,101466.02
2019-01-20T20:46:31.033Z,101470.53
2019-01-20T20:49:01.845Z,101473.56
2019-01-20T20:51:32.627Z,101479.45
2019-01-20T20:54:03.465Z,101484.90
2019-01-20T20:56:34.229Z,101487.91
2019-01-20T20:59:05.181Z,101490.86
2019-01-20T21:01:36.100Z,101497.45
2019-01-20T21:04:07.015Z,101500.53
2019-01-20T21:06:37.882Z,101502.44
2019-01-20T21:09:11.010Z,101504.19
2019-01-20T21:11:41.865Z,101502.72
2019-01-20T21:14:12.699Z,101509.01
2019-01-20T21:16:43.492Z,101508.13
2019-01-20T21:19:14.268Z,101513.08
2019-01-20T21:21:45.096Z,101508.86
2019-01-20T21:24:15.910Z,101512.62
2019-01-20T21:26:46.799Z,101512.03
2019-01-20T21:29:17.646Z,101510.16
2019-01-20T21:31:48.523Z,101514.19
2019-01-20T21:34:19.583Z,101517.79
2019-01-20T21:36:51.150Z,101511.24
2019-01-20T21:39:22.027Z,101513.09
2019-01-20T21:41:52.903Z,101515.82
2019-01-20T21:44:23.738Z,101523.38
2019-01-20T21:46:54.545Z,101526.95
2019-01-20T21:49:25.412Z,101532.35
2019-01-20T21:51:56.334Z,101530.02
2019-01-20T21:54:27.151Z,101525.77
2019-01-20T21:56:57.990Z,101526.58
2019-01-20T21:59:28.802Z,101524.89
2019-01-20T22:01:59.635Z,101532.19
2019-01-20T22:04:30.491Z,101531.59
2019-01-20T22:07:01.295Z,101540.89
2019-01-20T22:09:32.175Z,101535.27
2019-01-20T22:12:03.172Z,101539.31
2019-01-20T22:14:34.019Z,101536.66
2019-01-20T22:17:04.817Z,101538.48
2019-01-20T22:19:35.614Z,101547.65
2019-01-20T22:22:06.416Z,101539.88
2019-01-20T22:24:37.234Z,101553.27
2019-01-20T22:27:08.071Z,101550.09
2019-01-20T22:29:38.854Z,101554.31
2019-01-20T22:32:09.698Z,101551.45
2019-01-20T22:34:40.697Z,101557.03
2019-01-20T22:37:11.494Z,101556.56
2019-01-20T22:39:42.310Z,101553.34
2019-01-20T22:42:13.094Z,101555.53
2019-01-20T22:44:43.966Z,101558.04
2019-01-20T22:47:14.747Z,101560.41
2019-01-20T22:49:45.562Z,101556.14
2019-01-20T22:52:16.355Z,101554.06
2019-01-20T22:54:47.186Z,101556.23
2019-01-20T22:57:17.943Z,101550.52
2019-01-20T22:59:48.756Z,101556.52
2019-01-20T23:02:19.527Z,101556.59
2019-01-20T23:04:50.330Z,101555.71
2019-01-20T23:07:21.218Z,101552.56
2019-01-20T23:09:52.043Z,101552.84
2019-01-20T23:12:22.802Z,101556.98
2019-01-20T23:14:53.678Z,101555.53
2019-01-20T23:17:24.854Z,101559.95
2019-01-20T23:19:55.624Z,101557.44
2019-01-20T23:22:26.477Z,101563.15
2019-01-20T23:24:57.356Z,101559.99
2019-01-20T23:27:28.180Z,101559.92
2019-01-20T23:29:59.012Z,101561.70
2019-01-20T23:32:29.818Z,101555.70
2019-01-20T23:35:00.686Z,101559.84
2019-01-20T23:37:31.520Z,101560.60
2019-01-20T23:40:02.309Z,101561.73
2019-01-20T23:42:33.122Z,101561.49
2019-01-20T23:45:04.537Z,101559.14
2019-01-20T23:47:35.386Z,101562.42
2019-01-20T23:50:08.350Z,101563.16
2019-01-20T23:52:39.204Z,101562.19
2019-01-20T23:55:11.142Z,101560.73
2019-01-20T23:57:44.193Z,101559.27
